Airfield :
LOGIN :

Register | Disclaimer

   EN    FR    IT 

 










Legend :    VFR   Marginal VFR   IFR   Intensive IFR   Very Intensive IFR
Visi :
Ceiling :
>= 8 km
>= 3000ft
5 to 8 km
1000 to 3000 ft
1500m to 5 km
500 to 1000 ft
800 to 1500m
200 to 500 ft
< 800m
< 200 ft
Symbols :   Thunderstorms  Fog  Heavy snow  Heavy precipitations  Wind > 20 kt
SIGMETs :     Misc.  Thunderstorms  Icing  Turbulence  Mountain Waves  Volcanic Ashes







- Airport Elevation : 72 ft
- IATA code : UDE


EHVK - Volkel Airbase

CURRENT METAR :
  • 240725Z AUTO 19008KT 160V230 7000 BR FEW004 BKN005 OVC006 14/14 Q1020 YLO 20010KT 3000 BR BKN003 OVC005 TEMPO 1500 DZ BKN002 OVC004

EXPIRED METARs :
  • 240705Z AUTO 19007KT 140V230 6000 BR FEW003 BKN005 OVC006 14/14 Q1020 YLO 20010KT 3000 BR BKN003 OVC005 TEMPO 1500 DZ BKN002 OVC004
  • 240655Z AUTO 20008KT 160V240 5000 BR SCT003 OVC005 14/13 Q1020 YLO 20010KT 3000 BR BKN003 OVC005 TEMPO 1500 DZ BKN002 OVC004
  • 240635Z AUTO 19008KT 160V230 4700 BR BKN003 OVC005 13/13 Q1019 YLO 20010KT 3000 BR BKN003 OVC005 TEMPO 1500 DZ BKN002 OVC004
  • 240625Z AUTO 20009KT 160V250 3100 R24R/P3000U BR SCT003 OVC004 13/13 Q1020 REDZ YLO 20010KT 3000 BR BKN003 OVC005 TEMPO 1500 DZ BKN002 OVC004
  • 240601Z AUTO 20009KT 170V240 1900 DZ SCT003 BKN004 OVC005 13/13 Q1019 YLO 20010KT 3000 BR BKN003 OVC005 TEMPO 1500 DZ BKN002 OVC004
  • 240555Z AUTO 20009KT 170V240 2400 BR SCT003 OVC004 13/13 Q1019 REDZ YLO
  • 240525Z AUTO 21009KT 160V240 1700 DZ BKN003 OVC004 13/13 Q1019 YLO
  • 240507Z AUTO 20008KT 170V250 2200 BR OVC003 13/13 Q1020 YLO
  • 240455Z AUTO 20009KT 150V240 2700 BR OVC003 13/13 Q1019 YLO
  • 240439Z AUTO 20008KT 160V240 3200 BR FEW002 OVC004 13/13 Q1019 YLO

TAF TAF EHVK
Valid from the 24 at 05:00 until the 24 at 17:00 UTC


240430Z 2405/2417 21010KT 4000 BR -DZ BKN004
TEMPO 2405/2412 2500 DZ SCT002 OVC003
BECMG 2414/2416 8000 NSW SCT005 BKN008
No reported NOTAMs for that airfield.
1 SIGMET reported for the Amsterdam FIR (EHAA) :
 
Severe turbulence
EHAA SIGMET 1 VALID 240500/240800 EHDB
EHAA AMSTERDAM FIR SEV TURB OBS AT 0500Z NE OF LINE N5312 E00323 - N5203 E00640 FL380/390 MOV E 30KT NC=



MET'MAP, your aeronautical weather chart ! - Copyright ORBIFLY December 2007 - Disclaimer

ORBIFLY MET'MAP TEAM :

Programming & Development : Alexandra Zaïnal
Concept & Development : Baudouin d'Aumeries
Co-Development & Prog : Marc-Olivier Méhu
Technical & hardware support : Manuel Goepfert

Contact : metmap@orbifly.com




SOURCES & CREDITS :

   NOAA